createdAt,value
2022-10-24T00:01:27.279Z,98736.40
2022-10-24T00:04:38.843Z,98737.00
2022-10-24T00:07:47.138Z,98742.20
2022-10-24T00:10:54.993Z,98740.40
2022-10-24T00:14:04.462Z,98741.80
2022-10-24T00:17:12.051Z,98741.00
2022-10-24T00:20:20.320Z,98743.80
2022-10-24T00:23:28.458Z,98732.80
2022-10-24T00:26:37.202Z,98735.40
2022-10-24T00:29:44.872Z,98735.40
2022-10-24T00:32:53.614Z,98739.00
2022-10-24T00:36:01.521Z,98732.60
2022-10-24T00:39:09.839Z,98731.00
2022-10-24T00:42:17.999Z,98729.40
2022-10-24T00:45:52.374Z,98721.60
2022-10-24T00:49:00.265Z,98720.60
2022-10-24T00:52:13.181Z,98706.60
2022-10-24T00:55:21.721Z,98707.60
2022-10-24T00:58:34.280Z,98706.80
2022-10-24T01:01:53.271Z,98703.80
2022-10-24T01:05:02.111Z,98706.00
2022-10-24T01:08:23.034Z,98707.60
2022-10-24T01:11:54.922Z,98724.20
2022-10-24T01:15:15.854Z,98728.20
2022-10-24T01:18:33.670Z,98721.00
2022-10-24T01:21:49.095Z,98725.20
2022-10-24T01:25:16.005Z,98723.60
2022-10-24T01:28:30.850Z,98715.80
2022-10-24T01:31:47.096Z,98717.80
2022-10-24T01:38:18.237Z,98702.60
2022-10-24T01:41:30.892Z,98707.60
2022-10-24T01:44:45.624Z,98706.80
2022-10-24T01:47:59.460Z,98709.00
2022-10-24T01:51:10.278Z,98714.80
2022-10-24T01:54:19.264Z,98717.00
2022-10-24T01:57:32.741Z,98720.60
2022-10-24T02:03:56.428Z,98701.60
2022-10-24T02:07:10.057Z,98695.40
2022-10-24T02:10:23.980Z,98681.60
2022-10-24T02:13:37.939Z,98683.00
2022-10-24T02:16:47.782Z,98674.40
2022-10-24T02:19:54.159Z,98675.80
2022-10-24T02:23:12.310Z,98668.00
2022-10-24T02:26:32.605Z,98663.40
2022-10-24T02:29:48.609Z,98663.20
2022-10-24T02:33:01.435Z,98658.80
2022-10-24T02:36:15.480Z,98666.00
2022-10-24T02:39:25.719Z,98668.80
2022-10-24T02:42:35.314Z,98667.20
2022-10-24T02:45:43.846Z,98668.80
2022-10-24T02:48:58.668Z,98653.60
2022-10-24T02:52:07.568Z,98652.80
2022-10-24T02:55:15.906Z,98654.80
2022-10-24T02:58:23.712Z,98654.20
2022-10-24T03:01:31.685Z,98651.00
2022-10-24T03:04:39.362Z,98658.40
2022-10-24T03:07:47.509Z,98665.40
2022-10-24T03:10:56.098Z,98665.60
2022-10-24T03:14:04.335Z,98660.80
2022-10-24T03:17:12.047Z,98638.60
2022-10-24T03:20:21.021Z,98630.40
2022-10-24T03:23:29.726Z,98631.20
2022-10-24T03:26:37.926Z,98644.80
2022-10-24T03:29:45.609Z,98641.80
2022-10-24T03:32:53.819Z,98651.20
2022-10-24T03:36:01.935Z,98652.00
2022-10-24T03:39:09.783Z,98653.40
2022-10-24T03:42:17.738Z,98645.60
2022-10-24T03:45:25.551Z,98647.40
2022-10-24T03:48:33.511Z,98659.20
2022-10-24T03:51:41.212Z,98666.40
2022-10-24T03:54:49.963Z,98672.60
2022-10-24T03:57:58.024Z,98671.60
2022-10-24T04:01:05.792Z,98674.20
2022-10-24T04:04:13.856Z,98671.00
2022-10-24T04:07:21.916Z,98672.80
2022-10-24T04:10:30.608Z,98667.00
2022-10-24T04:13:38.394Z,98667.60
2022-10-24T04:16:46.016Z,98668.00
2022-10-24T04:19:53.741Z,98665.60
2022-10-24T04:23:04.397Z,98662.80
2022-10-24T04:26:14.265Z,98656.80
2022-10-24T04:29:22.050Z,98654.80
2022-10-24T04:32:29.753Z,98653.40
2022-10-24T04:35:37.747Z,98648.80
2022-10-24T04:38:46.514Z,98648.20
2022-10-24T04:41:57.054Z,98645.40
2022-10-24T04:45:05.193Z,98641.60
2022-10-24T04:48:13.275Z,98638.80
2022-10-24T04:51:22.463Z,98634.40
2022-10-24T04:54:30.924Z,98641.60
2022-10-24T04:57:38.655Z,98641.60
2022-10-24T05:00:49.836Z,98646.80
2022-10-24T05:03:57.875Z,98650.40
2022-10-24T05:07:05.647Z,98666.20
2022-10-24T05:10:14.760Z,98679.20
2022-10-24T05:13:22.603Z,98692.20
2022-10-24T05:16:30.361Z,98689.80
2022-10-24T05:19:38.483Z,98687.00
2022-10-24T05:22:46.570Z,98672.40
2022-10-24T05:25:54.905Z,98670.00
2022-10-24T05:29:02.894Z,98685.80
2022-10-24T05:32:10.959Z,98698.60
2022-10-24T05:35:18.640Z,98704.20
2022-10-24T05:38:26.244Z,98712.60
2022-10-24T05:41:33.913Z,98704.00
2022-10-24T05:44:41.957Z,98708.80
2022-10-24T05:47:49.636Z,98711.60
2022-10-24T05:51:00.923Z,98708.20
2022-10-24T05:54:09.347Z,98715.00
2022-10-24T05:57:17.336Z,98710.20
2022-10-24T06:00:25.787Z,98719.80
2022-10-24T06:03:33.669Z,98716.40
2022-10-24T06:06:45.951Z,98711.20
2022-10-24T06:09:53.757Z,98720.80
2022-10-24T06:13:01.716Z,98723.00
2022-10-24T06:16:05.668Z,98726.40
2022-10-24T06:19:13.394Z,98733.20
2022-10-24T06:22:24.127Z,98729.60
2022-10-24T06:25:31.870Z,98724.20
2022-10-24T06:28:39.752Z,98715.20
2022-10-24T06:31:47.469Z,98700.80
2022-10-24T06:34:55.333Z,98695.80
2022-10-24T06:38:09.022Z,98683.20
2022-10-24T06:41:18.774Z,98684.60
2022-10-24T06:44:26.451Z,98683.80
2022-10-24T06:47:35.893Z,98683.60
2022-10-24T06:50:47.977Z,98683.60
2022-10-24T06:53:58.955Z,98697.20
2022-10-24T06:57:06.994Z,98709.80
2022-10-24T07:00:17.676Z,98719.00
2022-10-24T07:03:26.579Z,98729.80
2022-10-24T07:06:34.488Z,98744.20
2022-10-24T07:09:42.282Z,98760.60
2022-10-24T07:13:02.023Z,98773.40
2022-10-24T07:16:11.201Z,98773.40
2022-10-24T07:19:19.214Z,98776.20
2022-10-24T07:22:29.269Z,98768.40
2022-10-24T07:25:40.655Z,98742.40
2022-10-24T07:28:53.583Z,98726.00
2022-10-24T07:32:02.107Z,98718.20
2022-10-24T07:35:12.288Z,98720.60
2022-10-24T07:38:20.182Z,98724.60
2022-10-24T07:41:30.466Z,98730.20
2022-10-24T07:44:38.180Z,98737.40
2022-10-24T07:47:46.171Z,98747.20
2022-10-24T07:50:54.669Z,98748.80
2022-10-24T07:54:03.275Z,98744.40
2022-10-24T07:57:10.995Z,98741.60
2022-10-24T08:00:20.632Z,98738.60
2022-10-24T08:03:28.729Z,98734.00
2022-10-24T08:06:36.902Z,98730.00
2022-10-24T08:09:47.108Z,98734.40
2022-10-24T08:12:54.966Z,98722.40
2022-10-24T08:16:02.916Z,98725.20
2022-10-24T08:19:12.829Z,98723.20
2022-10-24T08:22:20.628Z,98724.40
2022-10-24T08:25:28.386Z,98726.40
2022-10-24T08:28:36.307Z,98722.40
2022-10-24T08:31:44.186Z,98720.20
2022-10-24T08:34:52.090Z,98717.80
2022-10-24T08:38:01.870Z,98712.00
2022-10-24T08:41:11.734Z,98709.60
2022-10-24T08:44:31.700Z,98721.80
2022-10-24T08:47:48.883Z,98720.60
2022-10-24T08:51:04.701Z,98724.20
2022-10-24T08:54:19.184Z,98726.00
2022-10-24T09:00:49.182Z,98724.40
2022-10-24T09:03:59.642Z,98730.40
2022-10-24T09:07:08.517Z,98733.80
2022-10-24T09:10:25.508Z,98730.20
2022-10-24T09:13:36.991Z,98733.20
2022-10-24T09:16:47.285Z,98738.80
2022-10-24T09:19:59.778Z,98739.80
2022-10-24T09:23:12.302Z,98746.40
2022-10-24T09:26:29.255Z,98751.00
2022-10-24T09:29:38.419Z,98752.20
2022-10-24T09:32:49.910Z,98752.60
2022-10-24T09:36:01.051Z,98759.20
2022-10-24T09:39:30.205Z,98759.40
2022-10-24T09:42:39.251Z,98768.80
2022-10-24T09:45:50.167Z,98768.40
2022-10-24T09:49:02.639Z,98771.00
2022-10-24T09:52:20.819Z,98764.00
2022-10-24T09:55:31.359Z,98769.80
2022-10-24T09:58:39.557Z,98759.00
2022-10-24T10:01:47.625Z,98748.40
2022-10-24T10:05:21.848Z,98741.80
2022-10-24T10:08:32.969Z,98734.00
2022-10-24T10:11:44.771Z,98727.80
2022-10-24T10:14:59.373Z,98731.00
2022-10-24T10:18:09.268Z,98727.80
2022-10-24T10:21:19.682Z,98719.60
2022-10-24T10:24:40.611Z,98719.00
2022-10-24T10:27:55.238Z,98713.40
2022-10-24T10:31:05.455Z,98714.20
2022-10-24T10:34:38.511Z,98711.40
2022-10-24T10:37:55.029Z,98710.40
2022-10-24T10:41:16.485Z,98703.80
2022-10-24T10:44:50.220Z,98707.60
2022-10-24T10:48:18.089Z,98704.00
2022-10-24T10:51:37.056Z,98692.40
2022-10-24T10:55:19.147Z,98696.60
2022-10-24T10:58:44.046Z,98697.00
2022-10-24T11:02:01.736Z,98693.60
2022-10-24T11:05:33.184Z,98691.00
2022-10-24T11:09:08.071Z,98676.40
2022-10-24T11:12:24.373Z,98694.20
2022-10-24T11:15:36.938Z,98702.40
2022-10-24T11:18:49.809Z,98697.00
2022-10-24T11:22:01.709Z,98699.00
2022-10-24T11:25:06.534Z,98691.40
2022-10-24T11:28:25.535Z,98681.80
2022-10-24T11:31:38.713Z,98683.40
2022-10-24T11:34:55.966Z,98686.60
2022-10-24T11:38:15.636Z,98675.40
2022-10-24T11:41:36.678Z,98679.00
2022-10-24T11:44:55.425Z,98675.80
2022-10-24T11:48:18.467Z,98678.40
2022-10-24T11:51:34.509Z,98681.60
2022-10-24T11:54:51.072Z,98687.60
2022-10-24T11:58:02.392Z,98684.60
2022-10-24T12:01:47.495Z,98686.80
2022-10-24T12:05:24.220Z,98682.20
2022-10-24T12:08:57.831Z,98672.80
2022-10-24T12:12:25.755Z,98655.20
2022-10-24T12:15:51.418Z,98642.20
2022-10-24T12:19:06.844Z,98629.80
2022-10-24T12:22:23.864Z,98613.80
2022-10-24T12:25:37.289Z,98614.80
2022-10-24T12:28:54.398Z,98637.20
2022-10-24T12:32:06.675Z,98661.00
2022-10-24T12:35:47.380Z,98660.40
2022-10-24T12:39:09.779Z,98660.00
2022-10-24T12:42:40.494Z,98665.60
2022-10-24T12:45:48.451Z,98654.20
2022-10-24T12:49:26.469Z,98646.00
2022-10-24T12:53:05.431Z,98648.20
2022-10-24T12:56:21.076Z,98648.00
2022-10-24T12:59:32.278Z,98637.20
2022-10-24T13:03:08.204Z,98634.80
2022-10-24T13:06:27.233Z,98617.60
2022-10-24T13:09:52.000Z,98607.80
2022-10-24T13:13:26.505Z,98610.80
2022-10-24T13:16:46.430Z,98627.00
2022-10-24T13:20:15.829Z,98626.80
2022-10-24T13:23:28.473Z,98617.40
2022-10-24T13:26:43.202Z,98613.80
2022-10-24T13:30:35.660Z,98618.60
2022-10-24T13:33:49.806Z,98608.60
2022-10-24T13:37:08.105Z,98608.20
2022-10-24T13:40:25.825Z,98610.00
2022-10-24T13:43:34.113Z,98619.60
2022-10-24T13:46:53.465Z,98608.40
2022-10-24T13:50:14.462Z,98606.20
2022-10-24T13:53:30.667Z,98602.60
2022-10-24T13:56:44.394Z,98594.00
2022-10-24T14:03:19.123Z,98607.60
2022-10-24T14:06:33.539Z,98614.80
2022-10-24T14:09:50.401Z,98619.00
2022-10-24T14:13:00.574Z,98605.40
2022-10-24T14:16:11.566Z,98601.40
2022-10-24T14:19:33.038Z,98608.60
2022-10-24T14:22:44.010Z,98607.00
2022-10-24T14:26:00.864Z,98601.40
2022-10-24T14:29:27.904Z,98596.40
2022-10-24T14:32:36.038Z,98603.80
2022-10-24T14:35:43.980Z,98616.00
2022-10-24T14:38:55.805Z,98613.40
2022-10-24T14:42:04.305Z,98611.00
2022-10-24T14:45:28.494Z,98608.60
2022-10-24T14:48:36.535Z,98599.80
2022-10-24T14:51:45.234Z,98603.20
2022-10-24T14:55:03.277Z,98602.00
2022-10-24T14:58:25.191Z,98606.60
2022-10-24T15:01:33.518Z,98607.20
2022-10-24T15:04:45.949Z,98603.40
2022-10-24T15:11:37.077Z,98595.60
2022-10-24T15:14:49.089Z,98598.00
2022-10-24T15:18:01.034Z,98594.40
2022-10-24T15:21:16.588Z,98598.20
2022-10-24T15:24:28.072Z,98597.40
2022-10-24T15:27:45.567Z,98591.80
2022-10-24T15:30:53.809Z,98588.80
2022-10-24T15:34:01.701Z,98592.20
2022-10-24T15:37:17.709Z,98580.40
2022-10-24T15:40:30.075Z,98588.80
2022-10-24T15:43:38.176Z,98584.00
2022-10-24T15:46:45.898Z,98584.60
2022-10-24T15:49:53.578Z,98578.20
2022-10-24T15:53:06.813Z,98579.60
2022-10-24T15:56:15.123Z,98585.00
2022-10-24T15:59:26.858Z,98583.00
2022-10-24T16:02:35.137Z,98576.80
2022-10-24T16:05:48.390Z,98582.80
2022-10-24T16:08:57.112Z,98585.40
2022-10-24T16:12:05.280Z,98595.00
2022-10-24T16:15:27.412Z,98586.60
2022-10-24T16:18:35.545Z,98577.40
2022-10-24T16:21:44.446Z,98578.20
2022-10-24T16:24:53.794Z,98578.20
2022-10-24T16:28:05.892Z,98596.60
2022-10-24T16:31:18.652Z,98592.20
2022-10-24T16:34:26.665Z,98598.20
2022-10-24T16:37:34.676Z,98601.00
2022-10-24T16:40:48.430Z,98602.40
2022-10-24T16:43:59.076Z,98602.00
2022-10-24T16:47:10.074Z,98599.40
2022-10-24T16:50:24.131Z,98598.00
2022-10-24T16:53:32.037Z,98590.80
2022-10-24T16:56:39.800Z,98586.60
2022-10-24T16:59:48.325Z,98578.40
2022-10-24T17:02:58.641Z,98576.20
2022-10-24T17:06:07.684Z,98567.00
2022-10-24T17:09:15.424Z,98565.80
2022-10-24T17:12:26.694Z,98573.60
2022-10-24T17:15:36.972Z,98564.80
2022-10-24T17:18:54.930Z,98572.80
2022-10-24T17:22:14.113Z,98586.60
2022-10-24T17:25:26.433Z,98581.00
2022-10-24T17:28:35.304Z,98582.80
2022-10-24T17:31:43.376Z,98588.40
2022-10-24T17:34:53.984Z,98584.40
2022-10-24T17:38:28.716Z,98576.00
2022-10-24T17:41:40.919Z,98567.80
2022-10-24T17:44:51.707Z,98563.00
2022-10-24T17:48:00.363Z,98565.00
2022-10-24T17:51:10.810Z,98567.40
2022-10-24T17:54:19.817Z,98566.20
2022-10-24T17:57:28.032Z,98564.80
2022-10-24T18:00:36.444Z,98570.20
2022-10-24T18:03:44.774Z,98578.40
2022-10-24T18:06:52.863Z,98581.00
2022-10-24T18:10:02.007Z,98582.40
2022-10-24T18:13:10.764Z,98576.60
2022-10-24T18:16:21.962Z,98569.80
2022-10-24T18:19:30.182Z,98561.40
2022-10-24T18:22:40.115Z,98556.00
2022-10-24T18:25:47.884Z,98551.60
2022-10-24T18:28:58.142Z,98542.60
2022-10-24T18:32:06.297Z,98534.60
2022-10-24T18:35:15.393Z,98524.60
2022-10-24T18:38:24.513Z,98523.40
2022-10-24T18:41:55.115Z,98532.80
2022-10-24T18:45:12.772Z,98545.00
2022-10-24T18:48:26.633Z,98544.20
2022-10-24T18:51:43.141Z,98540.00
2022-10-24T18:55:04.062Z,98539.00
2022-10-24T18:58:19.495Z,98535.60
2022-10-24T19:01:38.227Z,98524.60
2022-10-24T19:04:52.706Z,98525.00
2022-10-24T19:08:01.268Z,98520.20
2022-10-24T19:11:09.942Z,98530.40
2022-10-24T19:14:18.765Z,98530.80
2022-10-24T19:17:26.838Z,98531.00
2022-10-24T19:20:35.773Z,98526.60
2022-10-24T19:23:44.092Z,98518.40
2022-10-24T19:26:51.892Z,98513.00
2022-10-24T19:29:59.935Z,98513.00
2022-10-24T19:33:07.716Z,98511.20
2022-10-24T19:36:19.003Z,98510.20
2022-10-24T19:39:30.343Z,98517.40
2022-10-24T19:42:41.998Z,98507.60
2022-10-24T19:46:07.089Z,98503.80
2022-10-24T19:49:15.710Z,98503.20
2022-10-24T19:52:31.579Z,98500.60
2022-10-24T19:55:42.766Z,98498.20
2022-10-24T19:59:07.502Z,98491.20
2022-10-24T20:02:16.706Z,98482.00
2022-10-24T20:05:24.428Z,98463.20
2022-10-24T20:08:32.281Z,98463.80
2022-10-24T20:11:40.639Z,98464.40
2022-10-24T20:14:48.481Z,98466.40
2022-10-24T20:17:56.255Z,98467.00
2022-10-24T20:21:08.166Z,98485.20
2022-10-24T20:24:16.389Z,98474.40
2022-10-24T20:27:25.002Z,98476.80
2022-10-24T20:30:32.770Z,98483.60
2022-10-24T20:33:40.841Z,98488.20
2022-10-24T20:36:49.400Z,98490.20
2022-10-24T20:39:57.426Z,98488.60
2022-10-24T20:43:07.277Z,98490.80
2022-10-24T20:46:13.578Z,98495.60
2022-10-24T20:49:21.319Z,98497.00
2022-10-24T20:52:29.228Z,98502.00
2022-10-24T20:55:44.122Z,98503.00
2022-10-24T20:58:55.059Z,98509.20
2022-10-24T21:02:03.096Z,98515.40
2022-10-24T21:05:12.841Z,98510.00
2022-10-24T21:08:20.646Z,98507.80
2022-10-24T21:11:31.835Z,98508.40
2022-10-24T21:14:39.486Z,98511.40
2022-10-24T21:17:47.551Z,98518.00
2022-10-24T21:20:55.790Z,98527.80
2022-10-24T21:24:06.848Z,98530.20
2022-10-24T21:27:14.723Z,98542.00
2022-10-24T21:30:22.781Z,98541.40
2022-10-24T21:33:31.207Z,98544.60
2022-10-24T21:36:39.190Z,98537.20
2022-10-24T21:39:46.799Z,98542.40
2022-10-24T21:42:54.550Z,98541.40
2022-10-24T21:46:10.376Z,98550.20
2022-10-24T21:49:18.459Z,98531.40
2022-10-24T21:52:26.129Z,98529.80
2022-10-24T21:55:33.863Z,98533.60
2022-10-24T21:58:41.875Z,98534.80
2022-10-24T22:01:52.668Z,98534.40
2022-10-24T22:05:00.436Z,98548.60
2022-10-24T22:08:08.690Z,98544.20
2022-10-24T22:11:18.809Z,98549.40
2022-10-24T22:14:27.777Z,98549.60
2022-10-24T22:17:35.483Z,98557.40
2022-10-24T22:20:43.394Z,98555.80
2022-10-24T22:23:51.094Z,98557.20
2022-10-24T22:26:59.165Z,98552.40
2022-10-24T22:30:08.313Z,98551.00
2022-10-24T22:33:24.492Z,98554.60
2022-10-24T22:36:50.132Z,98551.00
2022-10-24T22:39:59.246Z,98555.40
2022-10-24T22:43:10.800Z,98550.60
2022-10-24T22:46:51.722Z,98549.60
2022-10-24T22:50:12.580Z,98549.20
2022-10-24T22:53:26.122Z,98536.40
2022-10-24T22:56:36.833Z,98531.60
2022-10-24T22:59:46.795Z,98521.20
2022-10-24T23:03:02.473Z,98520.40
2022-10-24T23:06:28.313Z,98522.80
2022-10-24T23:09:36.002Z,98529.00
2022-10-24T23:12:46.159Z,98526.00
2022-10-24T23:15:56.229Z,98527.60
2022-10-24T23:19:07.703Z,98529.20
2022-10-24T23:22:25.727Z,98523.40
2022-10-24T23:25:35.395Z,98516.40
2022-10-24T23:28:57.069Z,98513.20
2022-10-24T23:32:07.215Z,98506.60
2022-10-24T23:35:19.100Z,98501.00
2022-10-24T23:38:28.272Z,98497.60
2022-10-24T23:41:37.860Z,98493.00
2022-10-24T23:44:46.938Z,98479.00
2022-10-24T23:48:21.697Z,98480.20
2022-10-24T23:51:36.304Z,98485.60
2022-10-24T23:54:45.432Z,98485.80
2022-10-24T23:57:55.173Z,98487.60
